createdAt,value
2022-11-04T00:09:05.438Z,5.99
2022-11-04T00:24:06.068Z,6.09
2022-11-04T00:39:06.676Z,5.72
2022-11-04T00:54:07.870Z,5.75
2022-11-04T01:09:08.477Z,5.56
2022-11-04T01:24:09.619Z,5.38
2022-11-04T01:39:10.732Z,5.45
2022-11-04T01:54:11.876Z,6.08
2022-11-04T02:09:12.485Z,6.66
2022-11-04T02:24:12.597Z,6.70
2022-11-04T02:39:13.195Z,6.56
2022-11-04T02:54:13.841Z,6.15
2022-11-04T03:09:13.980Z,6.11
2022-11-04T03:24:14.075Z,6.03
2022-11-04T03:39:14.669Z,6.09
2022-11-04T03:54:14.794Z,6.52
2022-11-04T04:09:14.882Z,6.87
2022-11-04T04:24:15.519Z,6.85
2022-11-04T04:39:16.121Z,6.92
2022-11-04T04:54:16.764Z,6.76
2022-11-04T05:09:17.765Z,6.92
2022-11-04T05:24:19.131Z,7.09
2022-11-04T05:39:19.209Z,7.28
2022-11-04T05:54:20.342Z,7.45
2022-11-04T06:09:20.286Z,7.53
2022-11-04T06:24:20.980Z,7.42
2022-11-04T06:39:22.042Z,7.55
2022-11-04T06:54:22.526Z,7.83
2022-11-04T07:09:22.620Z,8.22
2022-11-04T07:24:23.114Z,8.58
2022-11-04T07:39:24.937Z,8.79
2022-11-04T07:54:25.068Z,9.26
2022-11-04T08:09:25.750Z,9.51
2022-11-04T08:24:26.234Z,9.86
2022-11-04T08:39:26.400Z,10.18
2022-11-04T08:54:26.991Z,10.52
2022-11-04T09:09:27.107Z,10.59
2022-11-04T09:24:27.310Z,10.66
2022-11-04T09:39:28.662Z,11.00
2022-11-04T09:54:28.669Z,10.99
2022-11-04T10:09:28.876Z,10.97
2022-11-04T10:24:29.386Z,11.11
2022-11-04T10:39:29.658Z,11.17
2022-11-04T10:54:30.631Z,11.35
2022-11-04T11:09:30.778Z,11.40
2022-11-04T11:24:30.847Z,11.32
2022-11-04T11:39:31.952Z,11.36
2022-11-04T11:54:31.569Z,11.10
2022-11-04T12:09:34.420Z,11.22
2022-11-04T12:24:35.262Z,11.43
2022-11-04T12:39:36.169Z,11.14
2022-11-04T12:54:36.284Z,11.25
2022-11-04T13:09:36.925Z,11.24
2022-11-04T13:24:36.542Z,11.19
2022-11-04T13:39:36.623Z,11.03
2022-11-04T13:54:37.258Z,10.84
2022-11-04T14:09:36.858Z,10.70
2022-11-04T14:24:38.725Z,10.68
2022-11-04T14:39:40.611Z,10.82
2022-11-04T14:54:41.255Z,10.71
2022-11-04T15:09:42.848Z,10.41
2022-11-04T15:24:43.958Z,10.17
2022-11-04T15:39:44.994Z,10.22
2022-11-04T15:54:45.104Z,9.94
2022-11-04T16:09:45.241Z,9.97
2022-11-04T16:24:46.315Z,9.79
2022-11-04T16:39:45.952Z,9.78
2022-11-04T16:54:46.554Z,9.58
2022-11-04T17:09:47.591Z,9.58
2022-11-04T17:24:47.234Z,9.43
2022-11-04T17:39:47.783Z,9.39
2022-11-04T17:54:48.915Z,9.33
2022-11-04T18:09:49.073Z,9.17
2022-11-04T18:24:49.750Z,9.18
2022-11-04T18:39:49.743Z,9.15
2022-11-04T18:54:50.339Z,9.05
2022-11-04T19:09:51.797Z,9.10
2022-11-04T19:24:51.556Z,9.04
2022-11-04T19:39:51.990Z,9.05
2022-11-04T19:54:53.101Z,9.05
2022-11-04T20:09:52.711Z,9.14
2022-11-04T20:24:53.412Z,9.20
2022-11-04T20:39:55.263Z,9.21
2022-11-04T20:54:55.935Z,9.13
2022-11-04T21:09:55.535Z,9.20
2022-11-04T21:24:55.664Z,9.15
2022-11-04T21:39:56.320Z,9.21
2022-11-04T21:54:56.908Z,9.20
2022-11-04T22:09:59.430Z,9.31
2022-11-04T22:24:59.061Z,9.29
2022-11-04T22:39:59.206Z,9.23
2022-11-04T22:54:59.824Z,9.36
2022-11-04T23:09:59.749Z,9.43
2022-11-04T23:25:00.424Z,9.36
2022-11-04T23:40:01.895Z,9.20
2022-11-04T23:55:02.543Z,9.14
